INFORMACIÓN METAR y TAF
METAR FOR GCLP
ADDS - METARS form results

(0012 UTC 13 December 2019)
Data provider http://aviationweather.gov/metar/data/
 
METAR text: GCLP 130000Z 36017KT 9999 BKN040 18/10 Q1028 NOSIG
Conditions at: GCLP (LAS PALMAS/GANDO, ES) observed 0000 UTC 13 December 2019
Temperature: 18.0°C (64°F)
Dewpoint: 10.0°C (50°F) [RH = 59%]
Pressure (altimeter): 30.35 inches Hg (1028.0 mb)
Winds: from the N (360 degrees) at 20 MPH (17 knots; 8.7 m/s)
Visibility: 6 or more miles (10+ km)
Ceiling: 4000 feet AGL
Clouds: broken clouds at 4000 feet AGL
Weather: no significant weather observed at this time

METAR text: GCLP 122330Z 02025KT 9999 BKN040 18/09 Q1028 NOSIG
Conditions at: GCLP (LAS PALMAS/GANDO, ES) observed 2330 UTC 12 December 2019
Temperature: 18.0°C (64°F)
Dewpoint: 9.0°C (48°F) [RH = 56%]
Pressure (altimeter): 30.35 inches Hg (1028.0 mb)
Winds: from the NNE (20 degrees) at 29 MPH (25 knots; 12.9 m/s)
Visibility: 6 or more miles (10+ km)
Ceiling: 4000 feet AGL
Clouds: broken clouds at 4000 feet AGL
Weather: no significant weather observed at this time

Forecast for: GCLP (LAS PALMAS/GANDO, ES)
Text: TAF GCLP 122000Z 1221/1321 01021KT 9999 BKN030 TX22/1314Z TN17/1306Z
Forecast period: 2100 UTC 12 December 2019 to 2100 UTC 13 December 2019
Forecast type: FROM: standard forecast or significant change
Winds: from the N (10 degrees) at 24 MPH (21 knots; 10.8 m/s)
Visibility: 6 or more miles 10+ km)
Ceiling: 3000 feet AGL
Clouds: broken clouds at 3000 feet AGL
Weather: no significant weather forecast for this period

MAPA DE AEROPUERTO

INFORMACIÓN DE PISTA
Pista 03L Longitud 10171 ft Ancho 148 ft
Elevación 78 ft Umbral desplazado 0 ft Rumbo de pista 22
Pista 21R Longitud 10171 ft Ancho 148 ft
Elevación 33 ft Umbral desplazado 0 ft Rumbo de pista 202
Pista 03R Longitud 10171 ft Ancho 148 ft
Elevación 69 ft Umbral desplazado 0 ft Rumbo de pista 22
Pista 21L Longitud 10171 ft Ancho 148 ft
Elevación 27 ft Umbral desplazado 0 ft Rumbo de pista 202

FRECUANCIAS DEL AEROPUERTO
Tipo APP Nombre APP Frecuencia 120.9 MHZ
Tipo ATIS Nombre ATIS Frecuencia 118.6 MHZ
Tipo GND Nombre GND Frecuencia 121.7 MHZ
Tipo TWR Nombre TWR Frecuencia 118.3 MHZ

RADIO AYUDAS DEL AEROPUERTO
Tipo VOR-DME Nombre Gran Canaria Frecuencia 112900 KHZ
Tipo VOR-DME Nombre Gran Canaria Frecuencia 115000 KHZ
Tipo TACAN Nombre Gran Canaria Frecuencia 115600 KHZ
Tipo NDB Nombre Gran Canaria Frecuencia 365 KHZ